Lebanon, MO (65536)

5:47 AM CST on February 11, 2016 (GMT -0600)
Lebanon Mo | | Change Station
CLOSE
Current Station
Personal Weather Station
Location: Lebanon, MO
Elevation: 1207 ft
Nearby Weather Stations

Elev 1207 ft 37.69 °N, 92.69 °W | Updated 3 seconds ago

Partly Cloudy
Partly Cloudy
21.7 °F
Feels Like 22 °F
N
2.7
Wind Variable Wind from North
Gusts 7.4 mph

Today
High -- | Low -- °F
--% Chance of Precip.
Yesterday
High -- | Low -- °F
Precip. -- in
Pressure 30.16 in
Visibility 10.0 miles
Clouds Clear
Windchill 22 °F
Dew Point 14 °F
Humidity 71%
Rainfall 0.00 in
Snow Depth Not available.
7:05 AM 5:45 PM
Waxing Crescent, 11% visible
METAR KTBN 111058Z AUTO 06004KT 10SM CLR M06/M10 A3012 RMK AO2 SLP213 T10651098
Pressure 30.16 in
Visibility 10.0 miles
Clouds Clear
Windchill 22 °F
Dew Point 14 °F
Humidity 71%
Rainfall 0.00 in
Snow Depth Not available.
7:05 AM 5:45 PM
Waxing Crescent, 11% visible
METAR KTBN 111058Z AUTO 06004KT 10SM CLR M06/M10 A3012 RMK AO2 SLP213 T10651098

10-Day Weather Forecast

Almanac

Astronomy

Feb. 11, 2016 Rise Set
Actual Time
Civil Twilight
Nautical Twilight
Astronomical Twilight
Moon
Length of Visible Light
Length of Day
Tomorrow will be .
, % of the Moon is Illuminated

Today's Extremes

State Highs State Lows

Community

WunderPhotos

Upload Photos

1,892,030 photos uploaded!

WunderBlog® & News

Nearby

Air Quality

  Air Quality AQ Index Pollutant
Not available.

Snow Depth

Station Depth Elevation

Earthquake Activity

City Distance Mag. Time & Date
Minimum magnitude displayed is 2.5.

Coastal Water Temperatures

Place Temperature

Stations

Nearby Weather Stations

Station Location Temp. Windchill Dew Point Humidity Wind Precip. Elev Updated Type
                   

Watches & Warnings

There are currently no watches in effect.